LNG Aquarius — V7BW6 — position and weather

sailwx.info

Track history (hours):
 
Tides and Currents Weather Stations Pressure Air Temp Water Temp Dewpoint Dewpoint Depression Visibility Wind Speed Wind Dir Waves Ship Positions

LNG Aquarius

Last reported at 2014-Jul-27 00:14 UTC. Time now 2014-Jul-29 08:49 UTC.
Position N 01°08' E 103°45'.

Type: Tanker. MMSI: 538001385.

Date/timePositionNaut miles runAvg speedWind from/ knotsBaromVisibWave heightAir tempDewpointWater temp
2014-Jul-27 00:14N 01°08' E 103°45'7 9.5
2014-Jul-26 23:31N 01°12' E 103°51'8 8.5
2014-Jul-26 22:34N 01°16' E 103°58'1 1.4
2014-Jul-26 21:33N 01°17' E 103°59'0 0.1
2014-Jul-26 20:33N 01°17' E 103°59'0 0.0
2014-Jul-26 19:33N 01°17' E 103°59'0 0.0
2014-Jul-26 18:33N 01°17' E 103°59'0 0.0
2014-Jul-26 17:33N 01°17' E 103°59'0 0.1
2014-Jul-26 16:33N 01°17' E 103°59'0 0.1
2014-Jul-26 15:33N 01°17' E 103°58'0 0.2
2014-Jul-26 14:33N 01°17' E 103°58'0 0.0
2014-Jul-26 13:33N 01°17' E 103°58'0 0.0
2014-Jul-26 12:33N 01°17' E 103°58'0 0.1
2014-Jul-26 11:27N 01°17' E 103°58'0 0.0
2014-Jul-26 10:33N 01°17' E 103°58'0 0.1
2014-Jul-26 09:33N 01°17' E 103°58'0 0.0
2014-Jul-26 08:33N 01°17' E 103°58'0 0.0
2014-Jul-26 07:30N 01°17' E 103°58'0 0.1
2014-Jul-26 06:33N 01°17' E 103°58'0 0.0
2014-Jul-26 05:30N 01°17' E 103°58'0 0.1
2014-Jul-26 04:30N 01°17' E 103°58'0 0.0
2014-Jul-26 03:33N 01°17' E 103°58'0 0.1
2014-Jul-26 02:34N 01°17' E 103°58'1 1.3
2014-Jul-26 01:34N 01°16' E 103°58'2 2.0
2014-Jul-26 00:27N 01°16' E 104°00'  
Track history (hours):
 
Tides and Currents Weather Stations Pressure Air Temp Water Temp Dewpoint Dewpoint Depression Visibility Wind Speed Wind Dir Waves Ship Positions

LNG Aquarius

Last reported at 2014-Jul-27 00:14 UTC. Time now 2014-Jul-29 08:49 UTC.
Position N 01°08' E 103°45'.

Type: Tanker. MMSI: 538001385.

Date/timePositionNaut miles runAvg speedWind from/ knotsBaromVisibWave heightAir tempDewpointWater temp
2014-Jul-27 00:14N 01°08' E 103°45'7 9.5
2014-Jul-26 23:31N 01°12' E 103°51'8 8.5
2014-Jul-26 22:34N 01°16' E 103°58'1 1.4
2014-Jul-26 21:33N 01°17' E 103°59'0 0.1
2014-Jul-26 20:33N 01°17' E 103°59'0 0.0
2014-Jul-26 19:33N 01°17' E 103°59'0 0.0
2014-Jul-26 18:33N 01°17' E 103°59'0 0.0
2014-Jul-26 17:33N 01°17' E 103°59'0 0.1
2014-Jul-26 16:33N 01°17' E 103°59'0 0.1
2014-Jul-26 15:33N 01°17' E 103°58'0 0.2
2014-Jul-26 14:33N 01°17' E 103°58'0 0.0
2014-Jul-26 13:33N 01°17' E 103°58'0 0.0
2014-Jul-26 12:33N 01°17' E 103°58'0 0.1
2014-Jul-26 11:27N 01°17' E 103°58'0 0.0
2014-Jul-26 10:33N 01°17' E 103°58'0 0.1
2014-Jul-26 09:33N 01°17' E 103°58'0 0.0
2014-Jul-26 08:33N 01°17' E 103°58'0 0.0
2014-Jul-26 07:30N 01°17' E 103°58'0 0.1
2014-Jul-26 06:33N 01°17' E 103°58'0 0.0
2014-Jul-26 05:30N 01°17' E 103°58'0 0.1
2014-Jul-26 04:30N 01°17' E 103°58'0 0.0
2014-Jul-26 03:33N 01°17' E 103°58'0 0.1
2014-Jul-26 02:34N 01°17' E 103°58'1 1.3
2014-Jul-26 01:34N 01°16' E 103°58'2 2.0
2014-Jul-26 00:27N 01°16' E 104°00'  

Dump ship's entire track history